This week only. Pastebin PRO Accounts Christmas Special! Don't miss out!Want more features on Pastebin? Sign Up, it's FREE!
Guest

NMEA example - gpx result empty

By: a guest on Apr 26th, 2013  |  syntax: None  |  size: 37.57 KB  |  views: 22  |  expires: Never
download  |  raw  |  embed  |  report abuse  |  print
Text below is selected. Please press Ctrl+C to copy to your clipboard. (⌘+C on Mac)
  1. $GPGSV,3,1,11,08,58,056,22,19,10,042,14,21,05,316,14,25,02,074,21*75
  2. $GPGSV,3,2,11,27,59,060,21,28,60,139,15,07,18,068,,10,47,217,*71
  3. $GPGSV,3,3,11,15,35,299,,24,07,274,,26,57,303,*4F
  4. $GPGGA,000048.6,4816.257039,N,01609.629304,E,1,05,2.3,455.8,M,0,M,,*75
  5. $GPVTG,nan,T,,M,0.0,N,0.0,K,A*42
  6. $GPRMC,000048.6,A,4816.257039,N,01609.629304,E,0.0,,281208,,,A*4E
  7. $GPGSA,A,3,08,19,21,27,28,,,,,,,,3.4,2.3,2.6*3C
  8. $PSTIS,*61
  9. $GPGSV,3,1,11,08,58,056,22,19,10,042,15,21,05,316,16,25,02,074,21*76
  10. $GPGSV,3,2,11,27,59,060,20,28,60,139,15,07,18,068,,10,47,217,*70
  11. $GPGSV,3,3,11,15,35,299,,24,07,274,,26,57,303,*4F
  12. $GPGGA,000049.6,4816.257039,N,01609.629304,E,1,05,2.3,455.8,M,0,M,,*74
  13. $GPVTG,nan,T,,M,0.0,N,0.0,K,A*42
  14. $GPRMC,000049.6,A,4816.257039,N,01609.629304,E,0.0,,281208,,,A*4F
  15. $GPGSA,A,3,08,19,21,27,28,,,,,,,,3.5,2.3,2.6*3D
  16. $PSTIS,*61
  17. $GPGSV,3,1,11,08,58,056,22,19,10,042,15,21,05,316,16,25,02,074,21*76
  18. $GPGSV,3,2,11,27,59,060,20,28,60,139,14,07,18,068,,10,47,217,*71
  19. $GPGSV,3,3,11,15,35,299,,24,07,274,,26,57,303,*4F
  20. $GPGGA,000050.6,4816.257039,N,01609.629304,E,1,05,2.3,455.8,M,0,M,,*7C
  21. $GPVTG,nan,T,,M,0.0,N,0.0,K,A*42
  22. $GPRMC,000050.6,A,4816.257039,N,01609.629304,E,0.0,,281208,,,A*47
  23. $GPGSA,A,3,08,19,21,27,28,,,,,,,,3.5,2.3,2.6*3D
  24. $PSTIS,*61
  25. $GPGSV,3,1,11,08,58,056,21,19,10,042,15,21,05,316,16,25,02,074,21*75
  26. $GPGSV,3,2,11,27,59,060,20,28,60,139,14,07,18,068,,10,47,217,*71
  27. $GPGSV,3,3,11,15,35,299,,24,07,274,,26,57,303,*4F
  28. $GPGGA,000051.6,4816.257039,N,01609.629304,E,1,05,2.3,455.8,M,0,M,,*7D
  29. $GPVTG,nan,T,,M,0.0,N,0.0,K,A*42
  30. $GPRMC,000051.6,A,4816.257039,N,01609.629304,E,0.0,,281208,,,A*46
  31. $GPGSA,A,3,08,19,21,27,28,,,,,,,,3.5,2.3,2.6*3D
  32. $PSTIS,*61
  33. $GPGSV,3,1,11,08,58,056,21,19,10,042,15,21,05,316,16,25,02,074,21*75
  34. $GPGSV,3,2,11,27,59,060,20,07,18,068,,10,47,217,,15,35,299,*73
  35. $GPGSV,3,3,11,24,07,274,,26,57,303,,28,60,139,*48
  36. $GPGGA,000052.6,4816.257039,N,01609.629304,E,1,05,43.8,455.8,M,0,M,,*40
  37. $GPVTG,nan,T,,M,0.0,N,0.0,K,A*42
  38. $GPRMC,000052.6,A,4816.257039,N,01609.629304,E,0.0,,281208,,,A*45
  39. $GPGSA,A,3,08,19,21,27,28,,,,,,,,52.9,43.8,29.7*03
  40. $PSTIS,*61
  41. $GPGSV,3,1,11,08,57,056,21,19,10,042,15,21,05,316,14,25,02,074,21*78
  42. $GPGSV,3,2,11,27,59,060,20,28,60,139,15,07,18,068,,10,47,217,*70
  43. $GPGSV,3,3,11,15,35,299,,24,07,274,,26,57,303,*4F
  44. $GPGGA,000053.6,4816.257039,N,01609.629305,E,1,05,2.3,455.8,M,0,M,,*7E
  45. $GPVTG,nan,T,,M,0.0,N,0.0,K,A*42
  46. $GPRMC,000053.6,A,4816.257039,N,01609.629305,E,0.0,,281208,,,A*45
  47. $GPGSA,A,3,08,19,21,27,28,,,,,,,,3.5,2.3,2.6*3D
  48. $PSTIS,*61
  49. $GPGSV,3,1,11,08,57,056,20,10,47,217,14,19,10,042,15,21,05,316,14*7F
  50. $GPGSV,3,2,11,25,02,074,22,27,59,060,20,28,60,139,15,07,18,068,*70
  51. $GPGSV,3,3,11,15,35,299,,24,07,274,,26,57,303,*4F
  52. $GPGGA,000054.6,4816.257039,N,01609.629305,E,1,06,1.9,455.8,M,0,M,,*73
  53. $GPVTG,nan,T,,M,0.0,N,0.0,K,A*42
  54. $GPRMC,000054.6,A,4816.257039,N,01609.629305,E,0.0,,281208,,,A*42
  55. $GPGSA,A,3,08,10,19,21,27,28,,,,,,,3.0,1.9,2.4*32
  56. $PSTIS,*61
  57. $GPGSV,3,1,11,08,57,056,20,19,10,042,15,25,02,074,22,27,59,060,20*70
  58. $GPGSV,3,2,11,28,60,139,15,07,18,068,,10,47,217,,15,35,299,*7D
  59. $GPGSV,3,3,11,21,05,316,,24,07,274,,26,57,303,*4D
  60. $GPGGA,000055.6,4816.257039,N,01609.629305,E,1,06,90.6,455.8,M,0,M,,*45
  61. $GPVTG,nan,T,,M,0.0,N,0.0,K,A*42
  62. $GPRMC,000055.6,A,4816.257039,N,01609.629305,E,0.0,,281208,,,A*43
  63. $GPGSA,A,3,08,10,19,21,27,28,,,,,,,92.1,90.6,16.3*0E
  64. $PSTIS,*61
  65. $GPGSV,3,1,11,08,57,056,20,19,10,042,14,21,05,316,14,25,02,074,22*7B
  66. $GPGSV,3,2,11,27,59,060,20,28,60,139,15,07,18,068,,10,47,217,*70
  67. $GPGSV,3,3,11,15,35,299,,24,07,274,,26,57,303,*4F
  68. $GPGGA,000056.6,4816.257039,N,01609.629306,E,1,06,2.3,455.8,M,0,M,,*7B
  69. $GPVTG,nan,T,,M,0.0,N,0.0,K,A*42
  70. $GPRMC,000056.6,A,4816.257039,N,01609.629306,E,0.0,,281208,,,A*43
  71. $GPGSA,A,3,08,10,19,21,27,28,,,,,,,3.5,2.3,2.6*3C
  72. $PSTIS,*61
  73. $GPGSV,3,1,11,08,57,056,20,19,10,042,14,21,05,316,14,25,02,074,21*78
  74. $GPGSV,3,2,11,27,59,060,20,28,60,139,15,07,18,068,,10,47,217,*70
  75. $GPGSV,3,3,11,15,35,299,,24,07,274,,26,57,303,*4F
  76. $GPGGA,000057.6,4816.257039,N,01609.629306,E,1,06,2.3,455.8,M,0,M,,*7A
  77. $GPVTG,nan,T,,M,0.0,N,0.0,K,A*42
  78. $GPRMC,000057.6,A,4816.257039,N,01609.629306,E,0.0,,281208,,,A*42
  79. $GPGSA,A,3,08,10,19,21,27,28,,,,,,,3.5,2.3,2.6*3C
  80. $PSTIS,*61
  81. $GPGSV,3,1,11,08,57,056,20,10,47,217,14,19,10,042,14,21,05,316,14*7E
  82. $GPGSV,3,2,11,25,02,074,21,27,59,060,19,28,60,139,14,07,18,068,*78
  83. $GPGSV,3,3,11,15,35,299,,24,07,274,,26,57,303,*4F
  84. $GPGGA,000058.6,4816.257039,N,01609.629306,E,1,06,1.9,455.8,M,0,M,,*7C
  85. $GPVTG,nan,T,,M,0.0,N,0.0,K,A*42
  86. $GPRMC,000058.6,A,4816.257039,N,01609.629306,E,0.0,,281208,,,A*4D
  87. $GPGSA,A,3,08,10,19,21,27,28,,,,,,,3.0,1.9,2.4*32
  88. $PSTIS,*61
  89. $GPGSV,3,1,11,08,57,056,20,10,47,217,14,19,10,042,16,21,05,316,14*7C
  90. $GPGSV,3,2,11,25,02,074,21,27,59,060,19,28,60,139,14,07,18,068,*78
  91. $GPGSV,3,3,11,15,35,299,,24,07,274,,26,57,303,*4F
  92. $GPGGA,000059.6,4816.257041,N,01609.629303,E,1,06,1.9,455.8,M,0,M,,*77
  93. $GPVTG,nan,T,,M,0.0,N,0.0,K,A*42
  94. $GPRMC,000059.6,A,4816.257041,N,01609.629303,E,0.0,,281208,,,A*46
  95. $GPGSA,A,3,08,10,19,21,27,28,,,,,,,3.0,1.9,2.4*32
  96. $PSTIS,*61
  97. $GPGSV,3,1,11,08,57,056,21,19,10,042,16,25,02,074,21,27,59,060,19*7B
  98. $GPGSV,3,2,11,07,18,068,,10,47,217,,15,35,299,,21,05,316,*7C
  99. $GPGSV,3,3,11,24,07,274,,26,57,303,,28,60,139,*48
  100. $GPGGA,000100.6,4816.257041,N,01609.629303,E,1,06,666.6,455.8,M,0,M,,*72
  101. $GPVTG,nan,T,,M,0.0,N,0.0,K,A*42
  102. $GPRMC,000100.6,A,4816.257041,N,01609.629303,E,0.0,,281208,,,A*4B
  103. $GPGSA,A,3,08,10,19,21,27,28,,,,,,,666.6,666.6,666.6*3F
  104. $PSTIS,*61
  105. $GPGSV,3,1,11,08,57,056,21,10,47,217,15,19,10,042,16,25,02,074,22*7D
  106. $GPGSV,3,2,11,27,59,060,20,07,18,068,,15,35,299,,21,05,316,*77
  107. $GPGSV,3,3,11,24,07,274,,26,57,303,,28,60,139,*48
  108. $GPGGA,000101.6,4816.257041,N,01609.629304,E,1,06,47.9,455.8,M,0,M,,*4E
  109. $GPVTG,nan,T,,M,0.0,N,0.0,K,A*42
  110. $GPRMC,000101.6,A,4816.257041,N,01609.629304,E,0.0,,281208,,,A*4D
  111. $GPGSA,A,3,08,10,19,21,27,28,,,,,,,49.7,47.9,13.4*09
  112. $PSTIS,*61
  113. $GPGSV,3,1,11,08,57,056,21,10,47,217,15,19,10,042,15,25,02,074,22*7E
  114. $GPGSV,3,2,11,27,59,060,20,28,60,139,14,07,18,068,,15,35,299,*77
  115. $GPGSV,3,3,11,21,05,316,,24,07,274,,26,57,303,*4D
  116. $GPGGA,000102.6,4816.257041,N,01609.629305,E,1,06,3.5,455.8,M,0,M,,*70
  117. $GPVTG,nan,T,,M,0.0,N,0.0,K,A*42
  118. $GPRMC,000102.6,A,4816.257041,N,01609.629305,E,0.0,,281208,,,A*4F
  119. $GPGSA,A,3,08,10,19,21,27,28,,,,,,,4.2,3.5,2.4*39
  120. $PSTIS,*61
  121. $GPGSV,3,1,11,08,57,056,21,10,47,217,15,19,10,042,15,25,02,074,22*7E
  122. $GPGSV,3,2,11,27,59,060,20,07,18,068,,15,35,299,,21,05,316,*77
  123. $GPGSV,3,3,11,24,07,274,,26,57,303,,28,60,139,*48
  124. $GPGGA,000103.6,4816.257041,N,01609.629304,E,1,05,47.8,455.8,M,0,M,,*4E
  125. $GPVTG,nan,T,,M,0.0,N,0.0,K,A*42
  126. $GPRMC,000103.6,A,4816.257041,N,01609.629304,E,0.0,,281208,,,A*4F
  127. $GPGSA,A,3,08,10,19,27,28,,,,,,,,49.7,47.8,13.4*0B
  128. $PSTIS,*61
  129. $GPGSV,3,1,11,07,18,068,15,08,57,056,21,10,47,217,15,19,10,040,15*7E
  130. $GPGSV,3,2,11,25,02,074,22,27,59,060,20,15,35,299,,21,05,314,*73
  131. $GPGSV,3,3,11,24,07,274,,26,57,303,,28,60,139,*48
  132. $GPGGA,000104.6,4816.257041,N,01609.629304,E,1,06,3.3,455.8,M,0,M,,*71
  133. $GPVTG,nan,T,,M,0.0,N,0.0,K,A*42
  134. $GPRMC,000104.6,A,4816.257041,N,01609.629304,E,0.0,,281208,,,A*48
  135. $GPGSA,A,3,07,08,10,19,27,28,,,,,,,3.8,3.3,1.9*38
  136. $PSTIS,*61
  137. $GPGSV,3,1,11,07,18,068,15,08,57,056,21,10,47,217,15,25,02,074,23*70
  138. $GPGSV,3,2,11,27,59,060,20,15,35,299,,19,10,040,,21,05,314,*78
  139. $GPGSV,3,3,11,24,07,274,,26,57,303,,28,60,139,*48
  140. $GPGGA,000105.6,4816.257042,N,01609.629306,E,1,06,38.7,455.8,M,0,M,,*4D
  141. $GPVTG,nan,T,,M,0.0,N,0.0,K,A*42
  142. $GPRMC,000105.6,A,4816.257042,N,01609.629306,E,0.0,,281208,,,A*48
  143. $GPGSA,A,3,07,08,10,19,27,28,,,,,,,42.1,38.7,16.6*01
  144. $PSTIS,*61
  145. $GPGSV,3,1,11,07,18,068,15,08,57,056,20,10,47,217,15,25,02,074,23*71
  146. $GPGSV,3,2,11,27,59,060,21,15,35,299,,19,10,040,,21,05,314,*79
  147. $GPGSV,3,3,11,24,07,274,,26,57,303,,28,60,139,*48
  148. $GPGGA,000106.6,4816.257042,N,01609.629306,E,1,06,38.7,455.8,M,0,M,,*4E
  149. $GPVTG,nan,T,,M,0.0,N,0.0,K,A*42
  150. $GPRMC,000106.6,A,4816.257042,N,01609.629306,E,0.0,,281208,,,A*4B
  151. $GPGSA,A,3,07,08,10,19,27,28,,,,,,,42.1,38.7,16.6*01
  152. $PSTIS,*61
  153. $GPGSV,3,1,11,07,18,068,16,08,57,056,20,10,47,217,15,19,10,040,15*7C
  154. $GPGSV,3,2,11,25,02,074,23,27,59,060,21,15,35,299,,21,05,314,*73
  155. $GPGSV,3,3,11,24,07,274,,26,57,303,,28,60,139,*48
  156. $GPGGA,000107.6,4816.257042,N,01609.629306,E,1,06,3.3,455.8,M,0,M,,*73
  157. $GPVTG,nan,T,,M,0.0,N,0.0,K,A*42
  158. $GPRMC,000107.6,A,4816.257042,N,01609.629306,E,0.0,,281208,,,A*4A
  159. $GPGSA,A,3,07,08,10,19,27,28,,,,,,,3.8,3.3,1.9*38
  160. $PSTIS,*61
  161. $GPGSV,3,1,11,07,18,068,16,08,57,056,22,10,47,217,18,19,10,040,15*73
  162. $GPGSV,3,2,11,25,02,074,21,27,59,060,21,15,35,299,,21,05,314,*71
  163. $GPGSV,3,3,11,24,07,274,,26,57,303,,28,60,139,*48
  164. $GPGGA,000108.6,4816.257044,N,01609.629309,E,1,06,3.3,455.8,M,0,M,,*75
  165. $GPVTG,nan,T,,M,0.0,N,0.0,K,A*42
  166. $GPRMC,000108.6,A,4816.257044,N,01609.629309,E,0.0,,281208,,,A*4C
  167. $GPGSA,A,3,07,08,10,19,27,28,,,,,,,3.8,3.3,1.9*38
  168. $PSTIS,*61
  169. $GPGSV,3,1,11,07,18,068,16,08,57,056,22,10,47,217,18,19,10,040,15*73
  170. $GPGSV,3,2,11,25,02,074,21,27,59,060,19,15,35,299,,21,05,314,*7A
  171. $GPGSV,3,3,11,24,07,274,,26,57,303,,28,60,139,*48
  172. $GPGGA,000109.6,4816.257044,N,01609.629309,E,1,05,3.3,455.8,M,0,M,,*77
  173. $GPVTG,nan,T,,M,0.0,N,0.0,K,A*42
  174. $GPRMC,000109.6,A,4816.257044,N,01609.629309,E,0.0,,281208,,,A*4D
  175. $GPGSA,A,3,07,08,10,19,27,,,,,,,,3.8,3.3,1.9*32
  176. $PSTIS,*61
  177. $GPGSV,3,1,11,07,18,068,16,08,57,056,21,10,47,217,18,25,02,074,21*7C
  178. $GPGSV,3,2,11,27,59,060,19,15,35,299,,19,10,040,,21,05,314,*72
  179. $GPGSV,3,3,11,24,07,274,,26,57,303,,28,60,139,*48
  180. $GPGGA,000110.6,4816.257044,N,01609.629308,E,1,05,38.6,455.8,M,0,M,,*43
  181. $GPVTG,nan,T,,M,0.0,N,0.0,K,A*42
  182. $GPRMC,000110.6,A,4816.257044,N,01609.629308,E,0.0,,281208,,,A*44
  183. $GPGSA,A,3,07,08,10,19,27,,,,,,,,42.0,38.6,16.5*08
  184. $PSTIS,*61
  185. $GPGSV,3,1,11,07,18,068,16,08,57,056,21,10,47,217,17,25,02,074,20*72
  186. $GPGSV,3,2,11,27,59,060,19,15,35,299,,19,10,040,,21,05,314,*72
  187. $GPGSV,3,3,11,24,07,274,,26,57,303,,28,60,139,*48
  188. $GPGGA,000111.6,4816.257046,N,01609.629311,E,1,05,38.6,455.8,M,0,M,,*48
  189. $GPVTG,nan,T,,M,0.0,N,0.0,K,A*42
  190. $GPRMC,000111.6,A,4816.257046,N,01609.629311,E,0.0,,281208,,,A*4F
  191. $GPGSA,A,3,07,08,10,19,27,,,,,,,,42.0,38.6,16.5*08
  192. $PSTIS,*61
  193. $GPGSV,3,1,11,07,18,068,15,08,57,056,21,10,47,217,17,25,02,074,20*71
  194. $GPGSV,3,2,11,27,59,060,19,15,35,299,,19,10,040,,21,05,314,*72
  195. $GPGSV,3,3,11,24,07,274,,26,57,303,,28,60,139,*48
  196. $GPGGA,000112.6,4816.257046,N,01609.629311,E,1,05,38.6,455.8,M,0,M,,*4B
  197. $GPVTG,nan,T,,M,0.0,N,0.0,K,A*42
  198. $GPRMC,000112.6,A,4816.257046,N,01609.629311,E,0.0,,281208,,,A*4C
  199. $GPGSA,A,3,07,08,10,19,27,,,,,,,,42.0,38.6,16.5*08
  200. $PSTIS,*61
  201. $GPGSV,3,1,11,07,18,068,15,08,57,056,20,10,47,217,17,25,02,074,22*72
  202. $GPGSV,3,2,11,27,59,060,19,15,35,299,,19,10,040,,21,05,314,*72
  203. $GPGSV,3,3,11,24,07,274,,26,57,303,,28,60,139,*48
  204. $GPGGA,000113.6,4816.257046,N,01609.629311,E,1,05,38.6,455.8,M,0,M,,*4A
  205. $GPVTG,nan,T,,M,0.0,N,0.0,K,A*42
  206. $GPRMC,000113.6,A,4816.257046,N,01609.629311,E,0.0,,281208,,,A*4D
  207. $GPGSA,A,3,07,08,10,19,27,,,,,,,,41.9,38.6,16.5*02
  208. $PSTIS,*61
  209. $GPGSV,3,1,11,07,18,068,15,08,57,056,20,10,47,217,17,25,02,074,22*72
  210. $GPGSV,3,2,11,27,58,060,19,15,35,299,,19,10,040,,21,04,314,*72
  211. $GPGSV,3,3,11,24,07,274,,26,57,303,,28,60,137,*46
  212. $GPGGA,000114.6,4816.257046,N,01609.629312,E,1,04,38.5,455.8,M,0,M,,*4C
  213. $GPVTG,nan,T,,M,0.0,N,0.0,K,A*42
  214. $GPRMC,000114.6,A,4816.257046,N,01609.629312,E,0.0,,281208,,,A*49
  215. $GPGSA,A,3,07,08,10,27,,,,,,,,,41.9,38.5,16.5*09
  216. $PSTIS,*61
  217. $GPGSV,3,1,11,07,18,068,17,08,57,056,20,10,47,217,17,25,02,074,22*70
  218. $GPGSV,3,2,11,27,58,060,21,15,35,299,,19,10,040,,21,04,314,*79
  219. $GPGSV,3,3,11,24,07,274,,26,57,303,,28,60,137,*46
  220. $GPGGA,000115.6,4816.257047,N,01609.629311,E,1,04,38.5,455.8,M,0,M,,*4F
  221. $GPVTG,nan,T,,M,0.0,N,0.0,K,A*42
  222. $GPRMC,000115.6,A,4816.257047,N,01609.629311,E,0.0,,281208,,,A*4A
  223. $GPGSA,A,3,07,08,10,27,,,,,,,,,41.9,38.5,16.5*09
  224. $PSTIS,*61
  225. $GPGSV,3,1,11,07,18,068,17,08,57,056,21,10,47,217,17,25,02,074,22*71
  226. $GPGSV,3,2,11,27,58,060,21,15,35,299,,19,10,040,,21,04,314,*79
  227. $GPGSV,3,3,11,24,07,274,,26,57,303,,28,60,137,*46
  228. $GPGGA,000116.6,4816.257047,N,01609.629312,E,1,04,38.5,455.8,M,0,M,,*4F
  229. $GPVTG,nan,T,,M,0.0,N,0.0,K,A*42
  230. $GPRMC,000116.6,A,4816.257047,N,01609.629312,E,0.0,,281208,,,A*4A
  231. $GPGSA,A,3,07,08,10,27,,,,,,,,,41.9,38.5,16.5*09
  232. $PSTIS,*61
  233. $GPGSV,3,1,11,07,18,068,17,08,57,056,21,10,47,217,18,25,02,074,22*7E
  234. $GPGSV,3,2,11,27,58,060,22,15,35,299,,19,10,040,,21,04,314,*7A
  235. $GPGSV,3,3,11,24,07,274,,26,57,303,,28,60,137,*46
  236. $GPGGA,000117.6,4816.257052,N,01609.629318,E,1,04,38.5,455.8,M,0,M,,*40
  237. $GPVTG,nan,T,,M,0.0,N,0.0,K,A*42
  238. $GPRMC,000117.6,A,4816.257052,N,01609.629318,E,0.0,,281208,,,A*45
  239. $GPGSA,A,3,07,08,10,27,,,,,,,,,41.9,38.5,16.5*09
  240. $PSTIS,*61
  241. $GPGSV,3,1,11,07,18,068,19,08,57,056,22,10,47,217,18,25,02,074,21*70
  242. $GPGSV,3,2,11,27,58,060,22,15,35,299,,19,10,040,,21,04,314,*7A
  243. $GPGSV,3,3,11,24,07,274,,26,57,303,,28,60,137,*46
  244. $GPGGA,000118.6,4816.257052,N,01609.629318,E,1,04,38.5,455.8,M,0,M,,*4F
  245. $GPVTG,nan,T,,M,0.0,N,0.0,K,A*42
  246. $GPRMC,000118.6,A,4816.257052,N,01609.629318,E,0.0,,281208,,,A*4A
  247. $GPGSA,A,3,07,08,10,27,,,,,,,,,41.9,38.5,16.5*09
  248. $PSTIS,*61
  249. $GPGSV,3,1,11,07,18,068,19,08,57,056,22,10,47,217,18,19,10,040,18*71
  250. $GPGSV,3,2,11,25,02,074,21,27,58,060,23,15,35,299,,21,04,314,*73
  251. $GPGSV,3,3,11,24,07,274,,26,57,303,,28,60,137,*46
  252. $GPGGA,000119.6,4816.257052,N,01609.629317,E,1,05,3.3,455.8,M,0,M,,*7E
  253. $GPVTG,nan,T,,M,0.0,N,0.0,K,A*42
  254. $GPRMC,000119.6,A,4816.257052,N,01609.629317,E,0.0,,281208,,,A*44
  255. $GPGSA,A,3,07,08,10,19,27,,,,,,,,3.8,3.3,1.9*32
  256. $PSTIS,*61
  257. $GPGSV,3,1,11,07,18,068,19,08,57,056,22,10,47,217,17,19,10,040,18*7E
  258. $GPGSV,3,2,11,25,02,074,21,27,58,060,23,15,35,299,,21,04,314,*73
  259. $GPGSV,3,3,11,24,07,274,,26,57,303,,28,60,137,*46
  260. $GPGGA,000120.6,4816.257054,N,01609.629320,E,1,05,3.3,455.8,M,0,M,,*76
  261. $GPVTG,nan,T,,M,0.0,N,0.0,K,A*42
  262. $GPRMC,000120.6,A,4816.257054,N,01609.629320,E,0.0,,281208,,,A*4C
  263. $GPGSA,A,3,07,08,10,19,27,,,,,,,,3.8,3.3,1.9*32
  264. $PSTIS,*61
  265. $GPGSV,3,1,11,07,18,068,19,08,57,056,21,10,47,217,17,19,10,040,18*7D
  266. $GPGSV,3,2,11,25,02,074,20,27,58,060,21,15,35,299,,21,04,314,*70
  267. $GPGSV,3,3,11,24,07,274,,26,57,303,,28,60,137,*46
  268. $GPGGA,000121.6,4816.257056,N,01609.629321,E,1,05,3.3,455.9,M,0,M,,*75
  269. $GPVTG,nan,T,,M,0.0,N,0.0,K,A*42
  270. $GPRMC,000121.6,A,4816.257056,N,01609.629321,E,0.0,,281208,,,A*4E
  271. $GPGSA,A,3,07,08,10,19,27,,,,,,,,3.8,3.3,1.9*32
  272. $PSTIS,*61
  273. $GPGSV,3,1,11,07,18,068,19,08,57,056,21,10,47,217,17,19,10,040,17*72
  274. $GPGSV,3,2,11,25,02,074,20,27,58,060,21,15,35,299,,21,04,314,*70
  275. $GPGSV,3,3,11,24,07,274,,26,57,303,,28,60,137,*46
  276. $GPGGA,000122.6,4816.257056,N,01609.629321,E,1,05,3.3,455.9,M,0,M,,*76
  277. $GPVTG,nan,T,,M,0.0,N,0.0,K,A*42
  278. $GPRMC,000122.6,A,4816.257056,N,01609.629321,E,0.0,,281208,,,A*4D
  279. $GPGSA,A,3,07,08,10,19,27,,,,,,,,3.8,3.3,1.9*32
  280. $PSTIS,*61
  281. $GPGSV,3,1,11,07,18,068,19,08,57,056,22,10,47,217,18,19,10,040,17*7E
  282. $GPGSV,3,2,11,25,02,074,20,27,58,060,21,15,35,299,,21,04,314,*70
  283. $GPGSV,3,3,11,24,07,274,,26,57,303,,28,60,137,*46
  284. $GPGGA,000123.6,4816.257061,N,01609.629326,E,1,05,3.3,455.9,M,0,M,,*74
  285. $GPVTG,nan,T,,M,0.0,N,0.0,K,A*42
  286. $GPRMC,000123.6,A,4816.257061,N,01609.629326,E,0.0,,281208,,,A*4F
  287. $GPGSA,A,3,07,08,10,19,27,,,,,,,,3.8,3.3,1.9*32
  288. $PSTIS,*61
  289. $GPGSV,3,1,11,07,18,068,19,08,57,056,22,10,46,217,18,19,10,040,17*7F
  290. $GPGSV,3,2,11,25,02,074,20,27,58,060,21,15,35,299,,21,04,314,*70
  291. $GPGSV,3,3,11,24,07,274,,26,57,303,,28,60,137,*46
  292. $GPGGA,000124.6,4816.257061,N,01609.629326,E,1,05,3.3,455.9,M,0,M,,*73
  293. $GPVTG,nan,T,,M,0.0,N,0.0,K,A*42
  294. $GPRMC,000124.6,A,4816.257061,N,01609.629326,E,0.0,,281208,,,A*48
  295. $GPGSA,A,3,07,08,10,19,27,,,,,,,,3.8,3.3,1.9*32
  296. $PSTIS,*61
  297. $GPGSV,3,1,11,07,18,068,19,08,57,056,23,10,46,217,18,19,10,040,17*7E
  298. $GPGSV,3,2,11,25,02,074,20,27,58,060,21,15,35,299,,21,04,314,*70
  299. $GPGSV,3,3,11,24,07,274,,26,57,303,,28,60,137,*46
  300. $GPGGA,000125.6,4816.257059,N,01609.629325,E,1,05,3.3,455.9,M,0,M,,*7A
  301. $GPVTG,nan,T,,M,0.0,N,0.0,K,A*42
  302. $GPRMC,000125.6,A,4816.257059,N,01609.629325,E,0.0,,281208,,,A*41
  303. $GPGSA,A,3,07,08,10,19,27,,,,,,,,3.8,3.3,1.9*32
  304. $PSTIS,*61
  305. $GPGSV,3,1,11,07,18,068,19,08,57,056,23,10,46,217,17,19,10,040,17*71
  306. $GPGSV,3,2,11,25,02,074,20,27,58,060,21,28,60,137,19,15,35,299,*70
  307. $GPGSV,3,3,11,21,04,314,,24,07,274,,26,57,303,*4E
  308. $GPGGA,000126.6,4816.257060,N,01609.629325,E,1,06,2.5,455.9,M,0,M,,*77
  309. $GPVTG,nan,T,,M,0.0,N,0.0,K,A*42
  310. $GPRMC,000126.6,A,4816.257060,N,01609.629325,E,0.0,,281208,,,A*48
  311. $GPGSA,A,3,07,08,10,19,27,28,,,,,,,3.1,2.5,1.9*36
  312. $PSTIS,*61
  313. $GPGSV,3,1,11,07,18,068,16,08,57,056,23,10,46,217,17,19,10,040,17*7E
  314. $GPGSV,3,2,11,25,02,074,20,27,58,060,21,28,60,137,19,15,35,299,*70
  315. $GPGSV,3,3,11,21,04,314,,24,07,274,,26,57,303,*4E
  316. $GPGGA,000127.6,4816.257060,N,01609.629324,E,1,06,2.5,455.9,M,0,M,,*77
  317. $GPVTG,nan,T,,M,0.0,N,0.0,K,A*42
  318. $GPRMC,000127.6,A,4816.257060,N,01609.629324,E,0.0,,281208,,,A*48
  319. $GPGSA,A,3,07,08,10,19,27,28,,,,,,,3.1,2.5,1.9*36
  320. $PSTIS,*61
  321. $GPGSV,3,1,11,07,18,068,16,08,57,056,23,10,46,217,17,19,10,040,17*7E
  322. $GPGSV,3,2,11,25,02,074,20,27,58,060,21,28,60,137,19,15,35,299,*70
  323. $GPGSV,3,3,11,21,04,314,,24,07,274,,26,57,303,*4E
  324. $GPGGA,000128.6,4816.257059,N,01609.629323,E,1,06,2.5,455.9,M,0,M,,*75
  325. $GPVTG,nan,T,,M,0.0,N,0.0,K,A*42
  326. $GPRMC,000128.6,A,4816.257059,N,01609.629323,E,0.0,,281208,,,A*4A
  327. $GPGSA,A,3,07,08,10,19,27,28,,,,,,,3.1,2.5,1.9*36
  328. $PSTIS,*61
  329. $GPGSV,3,1,11,07,18,068,16,08,57,056,24,10,46,217,16,19,10,040,17*78
  330. $GPGSV,3,2,11,25,02,074,20,27,58,060,21,28,60,137,16,15,35,299,*7F
  331. $GPGSV,3,3,11,21,04,314,,24,07,274,,26,57,303,*4E
  332. $GPGGA,000129.6,4816.257059,N,01609.629321,E,1,06,2.5,455.9,M,0,M,,*76
  333. $GPVTG,nan,T,,M,0.0,N,0.0,K,A*42
  334. $GPRMC,000129.6,A,4816.257059,N,01609.629321,E,0.0,,281208,,,A*49
  335. $GPGSA,A,3,07,08,10,19,27,28,,,,,,,3.1,2.5,1.9*36
  336. $PSTIS,*61
  337. $GPGSV,3,1,11,07,18,068,18,08,57,056,24,10,46,217,16,19,10,040,17*76
  338. $GPGSV,3,2,11,25,02,074,19,27,58,060,18,28,60,137,16,15,35,299,*7F
  339. $GPGSV,3,3,11,21,04,314,,24,07,274,,26,57,303,*4E
  340. $GPGGA,000130.6,4816.257060,N,01609.629321,E,1,06,2.5,455.9,M,0,M,,*74
  341. $GPVTG,nan,T,,M,0.0,N,0.0,K,A*42
  342. $GPRMC,000130.6,A,4816.257060,N,01609.629321,E,0.0,,281208,,,A*4B
  343. $GPGSA,A,3,07,08,10,19,27,28,,,,,,,3.1,2.5,1.9*36
  344. $PSTIS,*61
  345. $GPGSV,3,1,11,07,18,068,18,08,57,056,22,10,46,217,16,19,10,040,18*7F
  346. $GPGSV,3,2,11,25,02,074,19,27,58,060,18,28,60,137,16,15,35,299,*7F
  347. $GPGSV,3,3,11,21,04,314,,24,07,274,,26,57,303,*4E
  348. $GPGGA,000131.6,4816.257058,N,01609.629319,E,1,06,2.5,455.8,M,0,M,,*74
  349. $GPVTG,nan,T,,M,0.0,N,0.0,K,A*42
  350. $GPRMC,000131.6,A,4816.257058,N,01609.629319,E,0.0,,281208,,,A*4A
  351. $GPGSA,A,3,07,08,10,19,27,28,,,,,,,3.1,2.5,1.9*36
  352. $PSTIS,*61
  353. $GPGSV,3,1,11,07,18,068,18,08,57,056,22,10,46,217,16,19,10,040,18*7F
  354. $GPGSV,3,2,11,25,02,074,19,27,58,060,18,28,60,137,16,15,35,299,*7F
  355. $GPGSV,3,3,11,21,04,314,,24,07,274,,26,57,303,*4E
  356. $GPGGA,000132.6,4816.257058,N,01609.629320,E,1,06,2.5,455.8,M,0,M,,*7D
  357. $GPVTG,nan,T,,M,0.0,N,0.0,K,A*42
  358. $GPRMC,000132.6,A,4816.257058,N,01609.629320,E,0.0,,281208,,,A*43
  359. $GPGSA,A,3,07,08,10,19,27,28,,,,,,,3.1,2.5,1.9*36
  360. $PSTIS,*61
  361. $GPGSV,3,1,11,07,18,068,17,08,57,056,22,10,46,217,16,19,10,040,18*70
  362. $GPGSV,3,2,11,25,02,074,18,27,58,060,16,15,35,299,,21,04,314,*7F
  363. $GPGSV,3,3,11,24,07,274,,26,57,303,,28,60,137,*46
  364. $GPGGA,000133.6,4816.257057,N,01609.629319,E,1,06,3.3,455.8,M,0,M,,*7E
  365. $GPVTG,nan,T,,M,0.0,N,0.0,K,A*42
  366. $GPRMC,000133.6,A,4816.257057,N,01609.629319,E,0.0,,281208,,,A*47
  367. $GPGSA,A,3,07,08,10,19,27,28,,,,,,,3.8,3.3,1.9*38
  368. $PSTIS,*61
  369. $GPGSV,3,1,11,07,18,068,17,08,57,056,23,10,46,216,16,19,10,040,18*70
  370. $GPGSV,3,2,11,25,02,074,18,27,58,060,16,15,36,299,,21,04,314,*7C
  371. $GPGSV,3,3,11,24,07,274,,26,57,303,,28,60,137,*46
  372. $GPGGA,000134.6,4816.257057,N,01609.629318,E,1,06,3.3,455.8,M,0,M,,*78
  373. $GPVTG,nan,T,,M,0.0,N,0.0,K,A*42
  374. $GPRMC,000134.6,A,4816.257057,N,01609.629318,E,0.0,,281208,,,A*41
  375. $GPGSA,A,3,07,08,10,19,27,28,,,,,,,3.8,3.3,1.9*38
  376. $PSTIS,*61
  377. $GPGSV,3,1,11,07,18,068,17,08,57,056,23,10,46,216,15,19,10,040,18*73
  378. $GPGSV,3,2,11,25,02,074,18,27,58,060,16,15,36,299,,21,04,314,*7C
  379. $GPGSV,3,3,11,24,07,274,,26,57,303,,28,60,137,*46
  380. $GPGGA,000135.6,4816.257056,N,01609.629318,E,1,06,3.3,455.8,M,0,M,,*78
  381. $GPVTG,nan,T,,M,0.0,N,0.0,K,A*42
  382. $GPRMC,000135.6,A,4816.257056,N,01609.629318,E,0.0,,281208,,,A*41
  383. $GPGSA,A,3,07,08,10,19,27,28,,,,,,,3.8,3.3,1.9*38
  384. $PSTIS,*61
  385. $GPGSV,3,1,11,07,18,068,17,08,57,056,23,10,46,216,15,15,36,299,15*70
  386. $GPGSV,3,2,11,19,10,040,18,25,02,074,21,27,58,060,19,28,60,137,22*76
  387. $GPGSV,3,3,11,21,04,314,,24,07,274,,26,57,303,*4E
  388. $GPGGA,000136.6,4816.257057,N,01609.629320,E,1,07,1.4,455.8,M,0,M,,*75
  389. $GPVTG,nan,T,,M,0.0,N,0.0,K,A*42
  390. $GPRMC,000136.6,A,4816.257057,N,01609.629320,E,0.0,,281208,,,A*48
  391. $GPGSA,A,3,07,08,10,15,19,27,28,,,,,,2.4,1.4,1.9*34
  392. $PSTIS,*61
  393. $GPGSV,3,1,11,07,18,068,17,08,57,056,24,10,46,216,15,15,36,299,15*77
  394. $GPGSV,3,2,11,19,10,040,19,25,02,074,21,26,57,303,17,27,58,060,19*7E
  395. $GPGSV,3,3,11,28,60,137,23,21,04,314,,24,07,274,*40
  396. $GPGGA,000137.6,4816.257054,N,01609.629317,E,1,08,1.3,455.8,M,0,M,,*7B
  397. $GPVTG,nan,T,,M,0.0,N,0.0,K,A*42
  398. $GPRMC,000137.6,A,4816.257054,N,01609.629317,E,0.0,,281208,,,A*4E
  399. $GPGSA,A,3,07,08,10,15,19,26,27,28,,,,,2.2,1.3,1.8*30
  400. $PSTIS,*61
  401. $GPGSV,3,1,11,07,18,068,17,08,57,056,28,10,46,216,18,15,36,299,15*76
  402. $GPGSV,3,2,11,19,10,040,19,25,02,074,21,26,57,303,17,27,58,060,19*7E
  403. $GPGSV,3,3,11,28,60,137,23,21,04,314,,24,07,274,*40
  404. $GPGGA,000138.6,4816.257053,N,01609.629316,E,1,08,1.3,455.8,M,0,M,,*72
  405. $GPVTG,nan,T,,M,0.0,N,0.0,K,A*42
  406. $GPRMC,000138.6,A,4816.257053,N,01609.629316,E,0.0,,281208,,,A*47
  407. $GPGSA,A,3,07,08,10,15,19,26,27,28,,,,,2.2,1.3,1.8*30
  408. $PSTIS,*61
  409. $GPGSV,3,1,11,07,18,068,20,08,57,056,24,10,46,216,18,15,36,299,16*7D
  410. $GPGSV,3,2,11,19,10,040,19,25,02,074,18,26,57,303,17,27,58,060,17*7A
  411. $GPGSV,3,3,11,28,60,137,23,21,04,314,,24,07,274,*40
  412. $GPGGA,000139.6,4816.257054,N,01609.629312,E,1,08,1.3,455.8,M,0,M,,*70
  413. $GPVTG,nan,T,,M,0.0,N,0.0,K,A*42
  414. $GPRMC,000139.6,A,4816.257054,N,01609.629312,E,0.0,,281208,,,A*45
  415. $GPGSA,A,3,07,08,10,15,19,26,27,28,,,,,2.2,1.3,1.8*30
  416. $PSTIS,*61
  417. $GPGSV,3,1,11,07,18,068,20,08,57,056,24,10,46,216,18,15,36,299,16*7D
  418. $GPGSV,3,2,11,19,10,040,20,25,02,074,18,26,57,303,17,27,58,060,17*70
  419. $GPGSV,3,3,11,28,60,137,18,21,04,314,,24,07,274,*48
  420. $GPGGA,000140.6,4816.257054,N,01609.629311,E,1,08,1.3,455.8,M,0,M,,*7D
  421. $GPVTG,nan,T,,M,0.0,N,0.0,K,A*42
  422. $GPRMC,000140.6,A,4816.257054,N,01609.629311,E,0.0,,281208,,,A*48
  423. $GPGSA,A,3,07,08,10,15,19,26,27,28,,,,,2.2,1.3,1.8*30
  424. $PSTIS,*61
  425. $GPGSV,3,1,11,07,18,068,20,08,57,056,24,10,46,216,19,15,36,299,16*7C
  426. $GPGSV,3,2,11,19,10,040,20,25,02,074,18,26,57,303,17,27,58,060,17*70
  427. $GPGSV,3,3,11,28,60,137,18,21,04,314,,24,07,274,*48
  428. $GPGGA,000141.6,4816.257052,N,01609.629309,E,1,08,1.3,455.8,M,0,M,,*73
  429. $GPVTG,nan,T,,M,0.0,N,0.0,K,A*42
  430. $GPRMC,000141.6,A,4816.257052,N,01609.629309,E,0.0,,281208,,,A*46
  431. $GPGSA,A,3,07,08,10,15,19,26,27,28,,,,,2.2,1.3,1.8*30
  432. $PSTIS,*61
  433. $GPGSV,3,1,11,07,18,068,21,08,57,056,21,10,46,216,19,15,36,299,16*78
  434. $GPGSV,3,2,11,19,10,040,20,25,02,074,20,26,57,303,17,27,58,060,15*79
  435. $GPGSV,3,3,11,28,60,137,18,21,04,314,,24,07,274,*48
  436. $GPGGA,000142.6,4816.257052,N,01609.629309,E,1,08,1.3,455.8,M,0,M,,*70
  437. $GPVTG,nan,T,,M,0.0,N,0.0,K,A*42
  438. $GPRMC,000142.6,A,4816.257052,N,01609.629309,E,0.0,,281208,,,A*45
  439. $GPGSA,A,3,07,08,10,15,19,26,27,28,,,,,2.2,1.3,1.8*30
  440. $PSTIS,*61
  441. $GPGSV,3,1,11,07,18,068,24,08,57,056,21,10,46,216,19,15,36,299,16*7D
  442. $GPGSV,3,2,11,19,10,040,20,25,02,074,20,26,57,303,16,27,58,060,15*78
  443. $GPGSV,3,3,11,28,60,137,15,21,04,314,,24,07,274,*45
  444. $GPGGA,000143.6,4816.257054,N,01609.629306,E,1,08,1.3,455.8,M,0,M,,*78
  445. $GPVTG,nan,T,,M,0.0,N,0.0,K,A*42
  446. $GPRMC,000143.6,A,4816.257054,N,01609.629306,E,0.0,,281208,,,A*4D
  447. $GPGSA,A,3,07,08,10,15,19,26,27,28,,,,,2.2,1.3,1.8*30
  448. $PSTIS,*61
  449. $GPGSV,3,1,11,07,18,068,24,08,57,057,21,10,46,216,18,19,10,040,20*76
  450. $GPGSV,3,2,11,25,02,074,20,26,57,303,16,15,36,299,,21,04,314,*7F
  451. $GPGSV,3,3,11,24,06,274,,27,58,060,,28,60,137,*4F
  452. $GPGGA,000144.6,4816.257055,N,01609.629306,E,1,08,2.0,455.8,M,0,M,,*7E
  453. $GPVTG,nan,T,,M,0.0,N,0.0,K,A*42
  454. $GPRMC,000144.6,A,4816.257055,N,01609.629306,E,0.0,,281208,,,A*4B
  455. $GPGSA,A,3,07,08,10,15,19,26,27,28,,,,,3.0,2.0,2.3*3B
  456. $PSTIS,*61
  457. $GPGSV,3,1,11,07,18,068,24,08,57,057,19,10,46,216,18,19,10,040,20*7D
  458. $GPGSV,3,2,11,25,02,074,19,26,57,303,16,27,58,060,16,15,36,299,*7D
  459. $GPGSV,3,3,11,21,04,314,,24,06,274,,28,60,137,*40
  460. $GPGGA,000145.6,4816.257054,N,01609.629305,E,1,08,1.8,455.8,M,0,M,,*76
  461. $GPVTG,nan,T,,M,0.0,N,0.0,K,A*42
  462. $GPRMC,000145.6,A,4816.257054,N,01609.629305,E,0.0,,281208,,,A*48
  463. $GPGSA,A,3,07,08,10,15,19,26,27,28,,,,,2.6,1.8,1.9*3E
  464. $PSTIS,*61
  465. $GPGSV,3,1,11,07,18,068,20,08,57,057,19,10,46,216,18,19,10,040,20*79
  466. $GPGSV,3,2,11,25,02,074,19,26,57,303,16,27,58,060,16,28,60,137,20*75
  467. $GPGSV,3,3,11,15,36,299,,21,04,314,,24,06,274,*4A
  468. $GPGGA,000146.6,4816.257054,N,01609.629305,E,1,07,1.6,455.8,M,0,M,,*74
  469. $GPVTG,nan,T,,M,0.0,N,0.0,K,A*42
  470. $GPRMC,000146.6,A,4816.257054,N,01609.629305,E,0.0,,281208,,,A*4B
  471. $GPGSA,A,3,07,08,10,19,26,27,28,,,,,,2.4,1.6,1.8*37
  472. $PSTIS,*61
  473. $GPGSV,3,1,11,07,18,068,20,08,57,057,19,10,46,216,19,19,10,040,20*78
  474. $GPGSV,3,2,11,25,02,074,19,26,57,303,16,27,58,060,16,28,60,137,20*75
  475. $GPGSV,3,3,11,15,36,299,,21,04,314,,24,06,274,*4A
  476. $GPGGA,000147.6,4816.257053,N,01609.629305,E,1,07,1.6,455.8,M,0,M,,*72
  477. $GPVTG,nan,T,,M,0.0,N,0.0,K,A*42
  478. $GPRMC,000147.6,A,4816.257053,N,01609.629305,E,0.0,,281208,,,A*4D
  479. $GPGSA,A,3,07,08,10,19,26,27,28,,,,,,2.4,1.6,1.8*37
  480. $PSTIS,*61
  481. $GPGSV,3,1,11,07,18,068,20,08,57,057,20,10,46,216,19,19,10,040,20*72
  482. $GPGSV,3,2,11,25,02,074,19,26,57,303,16,27,58,060,16,28,60,137,20*75
  483. $GPGSV,3,3,11,15,36,299,,21,04,314,,24,06,274,*4A
  484. $GPGGA,000148.6,4816.257053,N,01609.629305,E,1,07,1.6,455.8,M,0,M,,*7D
  485. $GPVTG,nan,T,,M,0.0,N,0.0,K,A*42
  486. $GPRMC,000148.6,A,4816.257053,N,01609.629305,E,0.0,,281208,,,A*42
  487. $GPGSA,A,3,07,08,10,19,26,27,28,,,,,,2.4,1.6,1.8*37
  488. $PSTIS,*61
  489. $GPGSV,3,1,11,07,18,068,20,08,57,057,20,10,46,216,19,19,10,040,20*72
  490. $GPGSV,3,2,11,25,02,074,19,26,57,303,17,27,58,060,16,28,60,137,17*70
  491. $GPGSV,3,3,11,15,36,299,,21,04,314,,24,06,274,*4A
  492. $GPGGA,000149.6,4816.257051,N,01609.629311,E,1,07,1.6,455.8,M,0,M,,*7B
  493. $GPVTG,nan,T,,M,0.0,N,0.0,K,A*42
  494. $GPRMC,000149.6,A,4816.257051,N,01609.629311,E,0.0,,281208,,,A*44
  495. $GPGSA,A,3,07,08,10,19,26,27,28,,,,,,2.4,1.6,1.8*37
  496. $PSTIS,*61
  497. $GPGSV,3,1,11,07,18,068,20,08,57,057,20,10,46,216,20,19,10,040,20*78
  498. $GPGSV,3,2,11,25,02,074,19,26,57,303,17,27,58,060,16,28,60,137,17*70
  499. $GPGSV,3,3,11,15,36,299,,21,04,314,,24,06,274,*4A
  500. $GPGGA,000150.6,4816.257050,N,01609.629311,E,1,07,1.6,455.8,M,0,M,,*72
  501. $GPVTG,nan,T,,M,0.0,N,0.0,K,A*42
  502. $GPRMC,000150.6,A,4816.257050,N,01609.629311,E,0.0,,281208,,,A*4D
  503. $GPGSA,A,3,07,08,10,19,26,27,28,,,,,,2.4,1.6,1.8*37
  504. $PSTIS,*61
  505. $GPGSV,3,1,11,07,18,068,20,08,57,057,17,10,46,216,20,19,10,040,20*7C
  506. $GPGSV,3,2,11,25,02,074,19,26,57,303,17,27,58,060,16,28,60,137,17*70
  507. $GPGSV,3,3,11,15,36,299,,21,04,314,,24,06,274,*4A
  508. $GPGGA,000151.6,4816.257050,N,01609.629310,E,1,07,1.6,455.8,M,0,M,,*72
  509. $GPVTG,nan,T,,M,0.0,N,0.0,K,A*42
  510. $GPRMC,000151.6,A,4816.257050,N,01609.629310,E,0.0,,281208,,,A*4D
  511. $GPGSA,A,3,07,08,10,19,26,27,28,,,,,,2.4,1.6,1.8*37
  512. $PSTIS,*61
  513. $GPGSV,3,1,11,07,18,068,21,08,57,057,17,10,46,216,20,19,10,040,19*77
  514. $GPGSV,3,2,11,25,02,074,19,26,57,303,15,27,58,060,16,28,60,137,17*72
  515. $GPGSV,3,3,11,15,36,299,,21,04,314,,24,06,274,*4A
  516. $GPGGA,000152.6,4816.257049,N,01609.629312,E,1,07,1.6,455.8,M,0,M,,*7B
  517. $GPVTG,nan,T,,M,0.0,N,0.0,K,A*42
  518. $GPRMC,000152.6,A,4816.257049,N,01609.629312,E,0.0,,281208,,,A*44
  519. $GPGSA,A,3,07,08,10,19,26,27,28,,,,,,2.4,1.6,1.8*37
  520. $PSTIS,*61
  521. $GPGSV,3,1,11,07,18,068,21,08,57,057,17,10,46,216,19,19,10,040,19*7D
  522. $GPGSV,3,2,11,25,02,074,19,26,57,303,15,27,58,060,16,28,60,137,15*70
  523. $GPGSV,3,3,11,15,36,299,,21,04,314,,24,06,274,*4A
  524. $GPGGA,000153.6,4816.257049,N,01609.629313,E,1,07,1.6,455.8,M,0,M,,*7B
  525. $GPVTG,nan,T,,M,0.0,N,0.0,K,A*42
  526. $GPRMC,000153.6,A,4816.257049,N,01609.629313,E,0.0,,281208,,,A*44
  527. $GPGSA,A,3,07,08,10,19,26,27,28,,,,,,2.4,1.6,1.8*37
  528. $PSTIS,*61
  529. $GPGSV,3,1,11,07,18,068,22,08,57,057,20,10,46,216,19,19,10,040,19*7A
  530. $GPGSV,3,2,11,25,02,074,21,27,58,060,16,15,36,299,,21,04,314,*76
  531. $GPGSV,3,3,11,24,06,274,,26,57,303,,28,60,137,*47
  532. $GPGGA,000154.6,4816.257048,N,01609.629313,E,1,07,3.3,455.8,M,0,M,,*7A
  533. $GPVTG,nan,T,,M,0.0,N,0.0,K,A*42
  534. $GPRMC,000154.6,A,4816.257048,N,01609.629313,E,0.0,,281208,,,A*42
  535. $GPGSA,A,3,07,08,10,19,26,27,28,,,,,,3.8,3.3,1.9*3C
  536. $PSTIS,*61
  537. $GPGSV,3,1,11,07,18,068,22,08,57,057,20,10,46,216,19,19,10,040,19*7A
  538. $GPGSV,3,2,11,25,02,074,21,26,58,303,16,27,58,060,16,15,36,299,*79
  539. $GPGSV,3,3,11,21,04,314,,24,06,274,,28,61,137,*41
  540. $GPGGA,000155.6,4816.257048,N,01609.629312,E,1,07,1.8,455.8,M,0,M,,*73
  541. $GPVTG,nan,T,,M,0.0,N,0.0,K,A*42
  542. $GPRMC,000155.6,A,4816.257048,N,01609.629312,E,0.0,,281208,,,A*42
  543. $GPGSA,A,3,07,08,10,19,26,27,28,,,,,,2.6,1.8,1.9*3A
  544. $PSTIS,*61
  545. $GPGSV,3,1,11,07,18,068,23,08,57,057,20,10,46,216,20,19,10,040,19*71
  546. $GPGSV,3,2,11,25,02,074,21,26,58,303,16,27,58,060,16,28,61,137,17*74
  547. $GPGSV,3,3,11,15,36,299,,21,04,314,,24,06,274,*4A
  548. $GPGGA,000156.6,4816.257046,N,01609.629311,E,1,07,1.6,455.8,M,0,M,,*73
  549. $GPVTG,nan,T,,M,0.0,N,0.0,K,A*42
  550. $GPRMC,000156.6,A,4816.257046,N,01609.629311,E,0.0,,281208,,,A*4C
  551. $GPGSA,A,3,07,08,10,19,26,27,28,,,,,,2.4,1.6,1.8*37
  552. $PSTIS,*61
  553. $GPGSV,3,1,11,07,18,068,23,08,57,057,19,10,46,216,20,19,10,040,19*7B
  554. $GPGSV,3,2,11,25,02,074,21,26,58,303,16,27,58,060,17,28,61,137,17*75
  555. $GPGSV,3,3,11,15,36,299,,21,04,314,,24,06,274,*4A
  556. $GPGGA,000157.6,4816.257045,N,01609.629311,E,1,07,1.6,455.8,M,0,M,,*71
  557. $GPVTG,nan,T,,M,0.0,N,0.0,K,A*42
  558. $GPRMC,000157.6,A,4816.257045,N,01609.629311,E,0.0,,281208,,,A*4E
  559. $GPGSA,A,3,07,08,10,19,26,27,28,,,,,,2.4,1.6,1.8*37
  560. $PSTIS,*61
  561. $GPGSV,3,1,11,07,18,068,23,08,57,057,19,10,46,216,20,19,10,040,19*7B
  562. $GPGSV,3,2,11,25,02,074,21,26,58,303,16,27,58,060,17,28,61,137,17*75
  563. $GPGSV,3,3,11,15,36,299,,21,04,314,,24,06,274,*4A
  564. $GPGGA,000158.6,4816.257045,N,01609.629310,E,1,07,1.6,455.8,M,0,M,,*7F
  565. $GPVTG,nan,T,,M,0.0,N,0.0,K,A*42
  566. $GPRMC,000158.6,A,4816.257045,N,01609.629310,E,0.0,,281208,,,A*40
  567. $GPGSA,A,3,07,08,10,19,26,27,28,,,,,,2.4,1.6,1.8*37
  568. $PSTIS,*61
  569. $GPGSV,3,1,11,07,18,068,23,08,57,057,19,10,46,216,19,19,10,040,19*71
  570. $GPGSV,3,2,11,25,02,074,21,27,58,060,17,28,61,137,18,15,36,299,*77
  571. $GPGSV,3,3,11,21,04,314,,24,06,274,,26,58,303,*40
  572. $GPGGA,000159.6,4816.257048,N,01609.629313,E,1,07,2.5,455.8,M,0,M,,*70
  573. $GPVTG,nan,T,,M,0.0,N,0.0,K,A*42
  574. $GPRMC,000159.6,A,4816.257048,N,01609.629313,E,0.0,,281208,,,A*4F
  575. $GPGSA,A,3,07,08,10,19,26,27,28,,,,,,3.1,2.5,1.9*32
  576. $PSTIS,*61
  577. $GPGSV,3,1,11,07,18,068,22,08,57,057,17,10,46,216,19,19,10,040,19*7E
  578. $GPGSV,3,2,11,25,02,074,20,27,58,060,17,28,61,137,18,15,36,299,*76
  579. $GPGSV,3,3,11,21,04,314,,24,06,274,,26,58,303,*40
  580. $GPGGA,000200.6,4816.257046,N,01609.629311,E,1,07,2.5,455.8,M,0,M,,*73
  581. $GPVTG,nan,T,,M,0.0,N,0.0,K,A*42
  582. $GPRMC,000200.6,A,4816.257046,N,01609.629311,E,0.0,,281208,,,A*4C
  583. $GPGSA,A,3,07,08,10,19,26,27,28,,,,,,3.1,2.5,1.9*32
  584. $PSTIS,*61
  585. $GPGSV,3,1,11,07,18,068,22,08,57,057,17,10,46,216,19,19,10,040,19*7E
  586. $GPGSV,3,2,11,25,02,074,20,27,58,060,17,28,61,137,18,15,36,299,*76
  587. $GPGSV,3,3,11,21,04,314,,24,06,274,,26,58,303,*40
  588. $GPGGA,000201.6,4816.257047,N,01609.629309,E,1,07,2.5,455.8,M,0,M,,*7A
  589. $GPVTG,nan,T,,M,0.0,N,0.0,K,A*42
  590. $GPRMC,000201.6,A,4816.257047,N,01609.629309,E,0.0,,281208,,,A*45
  591. $GPGSA,A,3,07,08,10,19,26,27,28,,,,,,3.1,2.5,1.9*32
  592. $PSTIS,*61
  593. $GPGSV,3,1,11,07,18,068,22,08,57,057,23,10,46,216,18,19,10,040,19*78
  594. $GPGSV,3,2,11,25,02,074,20,27,58,060,17,28,61,137,19,15,36,299,*77
  595. $GPGSV,3,3,11,21,04,314,,24,06,274,,26,58,303,*40
  596. $GPGGA,000202.6,4816.257048,N,01609.629312,E,1,06,2.5,455.8,M,0,M,,*7D
  597. $GPVTG,nan,T,,M,0.0,N,0.0,K,A*42
  598. $GPRMC,000202.6,A,4816.257048,N,01609.629312,E,0.0,,281208,,,A*43
  599. $GPGSA,A,3,07,08,10,19,27,28,,,,,,,3.1,2.5,1.9*36
  600. $PSTIS,*61
  601. $GPGSV,3,1,11,07,18,068,20,08,57,057,23,10,46,216,18,19,10,040,19*7A
  602. $GPGSV,3,2,11,25,02,074,16,27,58,060,18,28,61,137,19,15,36,299,*7D
  603. $GPGSV,3,3,11,21,04,314,,24,06,274,,26,58,303,*40
  604. $GPGGA,000203.6,4816.257048,N,01609.629313,E,1,06,2.5,455.8,M,0,M,,*7D
  605. $GPVTG,nan,T,,M,0.0,N,0.0,K,A*42
  606. $GPRMC,000203.6,A,4816.257048,N,01609.629313,E,0.0,,281208,,,A*43
  607. $GPGSA,A,3,07,08,10,19,27,28,,,,,,,3.1,2.5,1.9*36
  608. $PSTIS,*61
  609. $GPGSV,3,1,11,07,18,068,20,08,57,057,21,10,46,216,18,19,10,040,16*77
  610. $GPGSV,3,2,11,25,02,074,16,27,58,060,18,28,61,137,19,15,36,299,*7D
  611. $GPGSV,3,3,11,21,04,314,,24,06,274,,26,58,303,*40
  612. $GPGGA,000204.6,4816.257047,N,01609.629312,E,1,06,2.5,455.8,M,0,M,,*74
  613. $GPVTG,nan,T,,M,0.0,N,0.0,K,A*42
  614. $GPRMC,000204.6,A,4816.257047,N,01609.629312,E,0.0,,281208,,,A*4A
  615. $GPGSA,A,3,07,08,10,19,27,28,,,,,,,3.1,2.5,1.9*36
  616. $PSTIS,*61
  617. $GPGSV,3,1,11,07,18,068,20,08,57,057,21,10,46,216,17,19,10,040,16*78
  618. $GPGSV,3,2,11,25,02,074,16,27,58,060,18,28,61,137,16,15,36,299,*72
  619. $GPGSV,3,3,11,21,04,314,,24,06,274,,26,58,305,*46
  620. $GPGGA,000205.6,4816.257049,N,01609.629314,E,1,06,2.5,455.8,M,0,M,,*7D
  621. $GPVTG,nan,T,,M,0.0,N,0.0,K,A*42
  622. $GPRMC,000205.6,A,4816.257049,N,01609.629314,E,0.0,,281208,,,A*43
  623. $GPGSA,A,3,07,08,10,19,27,28,,,,,,,3.1,2.5,1.9*36
  624. $PSTIS,*61
  625. $GPGSV,3,1,11,07,18,068,21,08,57,057,22,10,46,216,17,19,10,040,16*7A
  626. $GPGSV,3,2,11,25,02,074,15,27,58,060,18,28,61,137,16,15,36,299,*71
  627. $GPGSV,3,3,11,21,04,314,,24,06,274,,26,58,305,*46
  628. $GPGGA,000206.6,4816.257049,N,01609.629311,E,1,06,2.5,455.8,M,0,M,,*7B
  629. $GPVTG,nan,T,,M,0.0,N,0.0,K,A*42
  630. $GPRMC,000206.6,A,4816.257049,N,01609.629311,E,0.0,,281208,,,A*45
  631. $GPGSA,A,3,07,08,10,19,27,28,,,,,,,3.1,2.5,1.9*36
  632. $PSTIS,*61
  633. $GPGSV,3,1,11,07,18,068,21,08,57,057,22,10,46,216,17,25,02,074,15*72
  634. $GPGSV,3,2,11,27,58,060,18,28,61,137,16,15,36,299,,19,10,040,*7E
  635. $GPGSV,3,3,11,21,04,314,,24,06,274,,26,58,305,*46
  636. $GPGGA,000207.6,4816.257049,N,01609.629311,E,1,06,3.1,455.8,M,0,M,,*7F
  637. $GPVTG,nan,T,,M,0.0,N,0.0,K,A*42
  638. $GPRMC,000207.6,A,4816.257049,N,01609.629311,E,0.0,,281208,,,A*44
  639. $GPGSA,A,3,07,08,10,19,27,28,,,,,,,3.9,3.1,2.4*35
  640. $PSTIS,*61
  641. $GPGSV,3,1,11,07,18,068,22,08,57,057,22,10,46,216,17,25,02,074,15*71
  642. $GPGSV,3,2,11,27,58,060,18,28,61,137,16,15,36,299,,19,10,040,*7E
  643. $GPGSV,3,3,11,21,04,314,,24,06,274,,26,58,305,*46
  644. $GPGGA,000208.6,4816.257050,N,01609.629311,E,1,06,3.1,455.8,M,0,M,,*78
  645. $GPVTG,nan,T,,M,0.0,N,0.0,K,A*42
  646. $GPRMC,000208.6,A,4816.257050,N,01609.629311,E,0.0,,281208,,,A*43
  647. $GPGSA,A,3,07,08,10,19,27,28,,,,,,,3.9,3.1,2.4*35
  648. $PSTIS,*61
  649. $GPGSV,3,1,11,07,18,068,22,08,57,057,20,10,46,216,17,25,02,074,17*71
  650. $GPGSV,3,2,11,27,58,060,18,28,61,137,16,15,36,299,,19,10,040,*7E
  651. $GPGSV,3,3,11,21,04,314,,24,06,274,,26,58,305,*46
  652. $GPGGA,000209.6,4816.257049,N,01609.629310,E,1,06,3.3,455.8,M,0,M,,*72
  653. $GPVTG,nan,T,,M,0.0,N,0.0,K,A*42
  654. $GPRMC,000209.6,A,4816.257049,N,01609.629310,E,0.0,,281208,,,A*4B
  655. $GPGSA,A,3,07,08,10,19,27,28,,,,,,,4.3,3.3,2.6*38
  656. $PSTIS,*61
  657. $GPGSV,3,1,11,07,18,068,21,08,57,057,20,10,46,216,17,19,10,040,15*7B
  658. $GPGSV,3,2,11,25,02,074,17,15,36,299,,21,04,314,,24,06,274,*7B
  659. $GPGSV,3,3,11,26,58,305,,27,58,060,,28,61,137,*40
  660. $GPGGA,000210.6,4816.257050,N,01609.629309,E,1,05,3.3,455.8,M,0,M,,*79
  661. $GPVTG,nan,T,,M,0.0,N,0.0,K,A*42
  662. $GPRMC,000210.6,A,4816.257050,N,01609.629309,E,0.0,,281208,,,A*43
  663. $GPGSA,A,3,07,08,10,19,28,,,,,,,,4.1,3.3,2.4*3D
  664. $PSTIS,*61
  665. $GPGSV,3,1,11,07,18,068,21,08,57,057,20,10,46,216,17,19,10,040,15*7B
  666. $GPGSV,3,2,11,25,02,074,17,15,36,299,,21,04,314,,24,06,274,*7B
  667. $GPGSV,3,3,11,26,58,305,,27,58,060,,28,61,137,*40
  668. $GPGGA,000211.6,4816.257050,N,01609.629309,E,1,05,3.3,455.8,M,0,M,,*78
  669. $GPVTG,nan,T,,M,0.0,N,0.0,K,A*42
  670. $GPRMC,000211.6,A,4816.257050,N,01609.629309,E,0.0,,281208,,,A*42
  671. $GPGSA,A,3,07,08,10,19,28,,,,,,,,4.1,3.3,2.4*3D
  672. $PSTIS,*61
  673. $GPGSV,3,1,11,07,18,068,21,08,57,057,21,10,46,216,17,19,10,040,15*7A
  674. $GPGSV,3,2,11,25,02,074,17,15,36,299,,21,04,314,,24,06,274,*7B
  675. $GPGSV,3,3,11,26,58,305,,27,58,060,,28,61,137,*40
  676. $GPGGA,000212.6,4816.257049,N,01609.629309,E,1,04,3.3,455.8,M,0,M,,*72
  677. $GPVTG,nan,T,,M,0.0,N,0.0,K,A*42
  678. $GPRMC,000212.6,A,4816.257049,N,01609.629309,E,0.0,,281208,,,A*49
  679. $GPGSA,A,3,07,08,10,19,,,,,,,,,4.1,3.3,2.4*37
  680. $PSTIS,*61
  681. $GPGSV,3,1,11,07,18,068,19,08,57,057,21,10,46,216,17,19,10,040,17*73
  682. $GPGSV,3,2,11,25,02,074,17,15,36,299,,21,04,314,,24,06,274,*7B
  683. $GPGSV,3,3,11,26,58,305,,27,58,060,,28,61,137,*40
  684. $GPGGA,000213.6,4816.257050,N,01609.629307,E,1,04,3.3,455.8,M,0,M,,*75
  685. $GPVTG,nan,T,,M,0.0,N,0.0,K,A*42
  686. $GPRMC,000213.6,A,4816.257050,N,01609.629307,E,0.0,,281208,,,A*4E
  687. $GPGSA,A,3,07,08,10,19,,,,,,,,,4.1,3.3,2.4*37
  688. $PSTIS,*61
  689. $GPGSV,3,1,11,07,18,068,19,08,57,057,22,10,46,216,17,19,10,040,17*70
  690. $GPGSV,3,2,11,25,02,074,17,15,36,299,,21,04,314,,24,06,274,*7B
  691. $GPGSV,3,3,11,26,58,305,,27,58,060,,28,61,137,*40
  692. $GPGGA,000214.6,4816.257050,N,01609.629307,E,1,04,3.3,455.8,M,0,M,,*72
  693. $GPVTG,nan,T,,M,0.0,N,0.0,K,A*42
  694. $GPRMC,000214.6,A,4816.257050,N,01609.629307,E,0.0,,281208,,,A*49
  695. $GPGSA,A,3,07,08,10,19,,,,,,,,,4.1,3.3,2.4*37
  696. $PSTIS,*61
  697. $GPGSV,3,1,11,07,18,068,19,08,57,057,22,19,10,040,17,25,01,074,15*71
  698. $GPGSV,3,2,11,10,46,216,,15,36,299,,21,04,314,,24,06,274,*7D
  699. $GPGSV,3,3,11,26,58,305,,27,58,060,,28,61,137,*40
  700. $GPGGA,000215.6,4816.257050,N,01609.629307,E,1,04,666.6,455.8,M,0,M,,*73
  701. $GPVTG,nan,T,,M,0.0,N,0.0,K,A*42
  702. $GPRMC,000215.6,A,4816.257050,N,01609.629307,E,0.0,,281208,,,A*48
  703. $GPGSA,A,3,07,08,10,19,,,,,,,,,666.6,666.6,666.6*34
  704. $PSTIS,*61
  705. $GPGSV,3,1,11,07,18,068,18,08,57,057,22,19,10,040,16,25,01,074,15*71
  706. $GPGSV,3,2,11,10,46,216,,15,36,299,,21,04,314,,24,06,274,*7D
  707. $GPGSV,3,3,11,26,58,305,,27,58,060,,28,61,137,*40
  708. $GPGGA,000216.6,4816.257051,N,01609.629306,E,1,04,666.6,455.8,M,0,M,,*70
  709. $GPVTG,nan,T,,M,0.0,N,0.0,K,A*42
  710. $GPRMC,000216.6,A,4816.257051,N,01609.629306,E,0.0,,281208,,,A*4B
  711. $GPGSA,A,3,07,08,10,19,,,,,,,,,666.6,666.6,666.6*34
  712. $PSTIS,*61
  713. $GPGSV,3,1,11,07,18,068,18,08,57,057,21,19,10,040,16,25,01,074,15*72
  714. $GPGSV,3,2,11,10,46,216,,15,36,299,,21,04,314,,24,06,274,*7D
  715. $GPGSV,3,3,11,26,58,305,,27,58,060,,28,61,137,*40
  716. $GPGGA,000217.6,4816.257050,N,01609.629305,E,1,04,666.6,455.8,M,0,M,,*73
  717. $GPVTG,nan,T,,M,0.0,N,0.0,K,A*42
  718. $GPRMC,000217.6,A,4816.257050,N,01609.629305,E,0.0,,281208,,,A*48
  719. $GPGSA,A,3,07,08,10,19,,,,,,,,,666.6,666.6,666.6*34
  720. $PSTIS,*61
  721. $GPGSV,3,1,11,07,18,068,18,08,57,057,21,10,46,216,15,19,10,040,16*71
  722. $GPGSV,3,2,11,25,01,074,15,26,58,305,16,27,58,060,15,15,36,299,*78
  723. $GPGSV,3,3,11,21,04,314,,24,06,274,,28,61,137,*41
  724. $GPGGA,000218.6,4816.257050,N,01609.629309,E,1,06,1.8,455.8,M,0,M,,
clone this paste RAW Paste Data